sensor_id;sensor_type;location;lat;lon;timestamp;pressure;altitude;pressure_sealevel;temperature;humidity
51083;BME280;37131;42.694;23.350;2023-04-21T00:02:20;95094.25;;;8.39;91.50
51083;BME280;37131;42.694;23.350;2023-04-21T00:04:45;95092.91;;;8.30;92.25
51083;BME280;37131;42.694;23.350;2023-04-21T00:07:11;95087.16;;;8.28;92.89
51083;BME280;37131;42.694;23.350;2023-04-21T00:09:38;95082.81;;;8.21;92.95
51083;BME280;37131;42.694;23.350;2023-04-21T00:12:03;95078.63;;;8.20;92.31
51083;BME280;37131;42.694;23.350;2023-04-21T00:14:29;95087.63;;;8.18;93.25
51083;BME280;37131;42.694;23.350;2023-04-21T00:16:54;95083.91;;;8.07;93.75
51083;BME280;37131;42.694;23.350;2023-04-21T00:19:19;95086.69;;;8.12;93.89
51083;BME280;37131;42.694;23.350;2023-04-21T00:21:45;95084.91;;;8.06;93.68
51083;BME280;37131;42.694;23.350;2023-04-21T00:24:10;95091.50;;;8.08;93.07
51083;BME280;37131;42.694;23.350;2023-04-21T00:26:36;95087.38;;;8.01;93.69
51083;BME280;37131;42.694;23.350;2023-04-21T00:29:01;95087.16;;;8.02;93.89
51083;BME280;37131;42.694;23.350;2023-04-21T00:31:26;95089.28;;;7.87;95.81
51083;BME280;37131;42.694;23.350;2023-04-21T00:33:52;95084.69;;;7.82;96.87
51083;BME280;37131;42.694;23.350;2023-04-21T00:36:17;95086.94;;;7.72;98.66
51083;BME280;37131;42.694;23.350;2023-04-21T00:38:43;95091.56;;;7.70;100.00
51083;BME280;37131;42.694;23.350;2023-04-21T00:41:08;95091.63;;;7.63;100.00
51083;BME280;37131;42.694;23.350;2023-04-21T00:43:33;95098.03;;;7.54;100.00
51083;BME280;37131;42.694;23.350;2023-04-21T00:45:59;95094.09;;;7.45;100.00
51083;BME280;37131;42.694;23.350;2023-04-21T00:48:25;95099.91;;;7.40;100.00
51083;BME280;37131;42.694;23.350;2023-04-21T00:50:50;95094.94;;;7.38;100.00
51083;BME280;37131;42.694;23.350;2023-04-21T00:53:15;95093.97;;;7.33;100.00
51083;BME280;37131;42.694;23.350;2023-04-21T00:55:41;95085.41;;;7.32;100.00
51083;BME280;37131;42.694;23.350;2023-04-21T00:58:06;95086.81;;;7.28;100.00
51083;BME280;37131;42.694;23.350;2023-04-21T01:00:32;95084.44;;;7.20;100.00
51083;BME280;37131;42.694;23.350;2023-04-21T01:02:58;95080.91;;;7.08;100.00
51083;BME280;37131;42.694;23.350;2023-04-21T01:05:24;95086.72;;;7.03;100.00
51083;BME280;37131;42.694;23.350;2023-04-21T01:07:49;95038.53;;;6.82;100.00
51083;BME280;37131;42.694;23.350;2023-04-21T01:10:15;95080.31;;;7.06;100.00
51083;BME280;37131;42.694;23.350;2023-04-21T01:12:43;95085.75;;;6.97;100.00
51083;BME280;37131;42.694;23.350;2023-04-21T01:15:10;95081.81;;;6.81;100.00
51083;BME280;37131;42.694;23.350;2023-04-21T01:17:35;95079.22;;;6.81;100.00
51083;BME280;37131;42.694;23.350;2023-04-21T01:20:04;95082.81;;;6.74;100.00
51083;BME280;37131;42.694;23.350;2023-04-21T01:22:32;95075.84;;;6.74;100.00
51083;BME280;37131;42.694;23.350;2023-04-21T01:24:58;95080.66;;;6.71;100.00
51083;BME280;37131;42.694;23.350;2023-04-21T01:27:24;95085.25;;;6.62;100.00
51083;BME280;37131;42.694;23.350;2023-04-21T01:29:50;95091.41;;;6.61;100.00
51083;BME280;37131;42.694;23.350;2023-04-21T01:32:18;95088.22;;;6.65;100.00
51083;BME280;37131;42.694;23.350;2023-04-21T01:34:44;95085.22;;;6.68;100.00
51083;BME280;37131;42.694;23.350;2023-04-21T01:37:14;95083.66;;;6.67;100.00
51083;BME280;37131;42.694;23.350;2023-04-21T01:39:40;95085.41;;;6.67;100.00
51083;BME280;37131;42.694;23.350;2023-04-21T01:42:05;95083.44;;;6.62;100.00
51083;BME280;37131;42.694;23.350;2023-04-21T01:44:30;95080.84;;;6.69;100.00
51083;BME280;37131;42.694;23.350;2023-04-21T01:46:56;95073.53;;;6.53;100.00
51083;BME280;37131;42.694;23.350;2023-04-21T01:49:21;95082.44;;;6.57;100.00
51083;BME280;37131;42.694;23.350;2023-04-21T01:51:47;95068.91;;;6.55;100.00
51083;BME280;37131;42.694;23.350;2023-04-21T01:54:12;95073.72;;;6.51;100.00
51083;BME280;37131;42.694;23.350;2023-04-21T01:56:37;95070.13;;;6.45;100.00
51083;BME280;37131;42.694;23.350;2023-04-21T01:59:03;95073.31;;;6.47;100.00
51083;BME280;37131;42.694;23.350;2023-04-21T02:01:28;95084.28;;;6.36;100.00
51083;BME280;37131;42.694;23.350;2023-04-21T02:03:53;95069.75;;;6.28;100.00
51083;BME280;37131;42.694;23.350;2023-04-21T02:06:18;95080.50;;;6.25;100.00
51083;BME280;37131;42.694;23.350;2023-04-21T02:08:44;95083.88;;;6.26;100.00
51083;BME280;37131;42.694;23.350;2023-04-21T02:11:09;95080.50;;;6.25;100.00
51083;BME280;37131;42.694;23.350;2023-04-21T02:13:34;95073.16;;;6.22;100.00
51083;BME280;37131;42.694;23.350;2023-04-21T02:16:00;95074.53;;;6.31;100.00
51083;BME280;37131;42.694;23.350;2023-04-21T02:18:25;95070.75;;;6.27;100.00
51083;BME280;37131;42.694;23.350;2023-04-21T02:20:53;95070.94;;;6.26;100.00
51083;BME280;37131;42.694;23.350;2023-04-21T02:23:18;95065.00;;;6.19;100.00
51083;BME280;37131;42.694;23.350;2023-04-21T02:25:44;95068.56;;;6.18;100.00
51083;BME280;37131;42.694;23.350;2023-04-21T02:28:09;95064.41;;;6.03;100.00
51083;BME280;37131;42.694;23.350;2023-04-21T02:30:34;95067.00;;;6.10;100.00
51083;BME280;37131;42.694;23.350;2023-04-21T02:33:00;95066.16;;;6.23;100.00
51083;BME280;37131;42.694;23.350;2023-04-21T02:35:25;95072.94;;;6.30;100.00
51083;BME280;37131;42.694;23.350;2023-04-21T02:37:51;95065.94;;;6.38;100.00
51083;BME280;37131;42.694;23.350;2023-04-21T02:40:16;95070.75;;;6.41;100.00
51083;BME280;37131;42.694;23.350;2023-04-21T02:42:41;95069.16;;;6.33;100.00
51083;BME280;37131;42.694;23.350;2023-04-21T02:45:07;95072.75;;;6.32;100.00
51083;BME280;37131;42.694;23.350;2023-04-21T02:47:32;95077.31;;;6.30;100.00
51083;BME280;37131;42.694;23.350;2023-04-21T02:49:57;95078.91;;;6.38;100.00
51083;BME280;37131;42.694;23.350;2023-04-21T02:52:23;95075.53;;;6.44;100.00
51083;BME280;37131;42.694;23.350;2023-04-21T02:54:48;95072.13;;;6.50;100.00
51083;BME280;37131;42.694;23.350;2023-04-21T02:57:14;95069.28;;;6.58;100.00
51083;BME280;37131;42.694;23.350;2023-04-21T02:59:39;95075.28;;;6.52;100.00
51083;BME280;37131;42.694;23.350;2023-04-21T03:02:04;95071.31;;;6.56;100.00
51083;BME280;37131;42.694;23.350;2023-04-21T03:04:29;95069.25;;;6.72;100.00
51083;BME280;37131;42.694;23.350;2023-04-21T03:06:57;95068.06;;;6.74;100.00
51083;BME280;37131;42.694;23.350;2023-04-21T03:09:23;95074.84;;;6.68;100.00
51083;BME280;37131;42.694;23.350;2023-04-21T03:11:48;95072.06;;;6.70;100.00
51083;BME280;37131;42.694;23.350;2023-04-21T03:14:13;95076.44;;;6.70;99.51
51083;BME280;37131;42.694;23.350;2023-04-21T03:16:38;95077.44;;;6.75;100.00
51083;BME280;37131;42.694;23.350;2023-04-21T03:19:04;95079.81;;;6.77;100.00
51083;BME280;37131;42.694;23.350;2023-04-21T03:21:29;95078.22;;;6.82;100.00
51083;BME280;37131;42.694;23.350;2023-04-21T03:23:55;95076.81;;;6.87;100.00
51083;BME280;37131;42.694;23.350;2023-04-21T03:26:21;95081.19;;;6.93;100.00
51083;BME280;37131;42.694;23.350;2023-04-21T03:28:46;95078.75;;;6.98;100.00
51083;BME280;37131;42.694;23.350;2023-04-21T03:31:11;95080.91;;;7.08;100.00
51083;BME280;37131;42.694;23.350;2023-04-21T03:33:36;95084.50;;;7.13;100.00
51083;BME280;37131;42.694;23.350;2023-04-21T03:36:02;95081.44;;;7.23;98.32
51083;BME280;37131;42.694;23.350;2023-04-21T03:38:27;95084.44;;;7.27;96.93
51083;BME280;37131;42.694;23.350;2023-04-21T03:40:52;95082.81;;;7.32;95.25
51083;BME280;37131;42.694;23.350;2023-04-21T03:43:18;95086.75;;;7.35;95.11
51083;BME280;37131;42.694;23.350;2023-04-21T03:45:43;95086.56;;;7.36;94.29
51083;BME280;37131;42.694;23.350;2023-04-21T03:48:08;95088.91;;;7.45;93.53
51083;BME280;37131;42.694;23.350;2023-04-21T03:50:33;95086.91;;;7.47;94.33
51083;BME280;37131;42.694;23.350;2023-04-21T03:52:59;95092.06;;;7.53;96.60
51083;BME280;37131;42.694;23.350;2023-04-21T03:55:25;95089.22;;;7.62;94.48
51083;BME280;37131;42.694;23.350;2023-04-21T03:57:50;95091.41;;;7.65;95.81
51083;BME280;37131;42.694;23.350;2023-04-21T04:00:16;95093.16;;;7.71;95.07
51083;BME280;37131;42.694;23.350;2023-04-21T04:02:41;95088.34;;;7.75;94.78
51083;BME280;37131;42.694;23.350;2023-04-21T04:05:06;95096.53;;;7.71;93.54
51083;BME280;37131;42.694;23.350;2023-04-21T04:07:32;95093.72;;;7.80;93.47
51083;BME280;37131;42.694;23.350;2023-04-21T04:09:57;95098.63;;;7.88;94.62
51083;BME280;37131;42.694;23.350;2023-04-21T04:12:22;95100.88;;;7.84;95.29
51083;BME280;37131;42.694;23.350;2023-04-21T04:14:48;95099.59;;;7.94;95.59
51083;BME280;37131;42.694;23.350;2023-04-21T04:17:13;95104.75;;;8.00;92.10
51083;BME280;37131;42.694;23.350;2023-04-21T04:19:38;95107.69;;;8.11;91.69
51083;BME280;37131;42.694;23.350;2023-04-21T04:22:03;95110.81;;;8.19;91.71
51083;BME280;37131;42.694;23.350;2023-04-21T04:24:31;95119.63;;;8.37;91.07
51083;BME280;37131;42.694;23.350;2023-04-21T04:26:57;95110.19;;;8.49;86.75
51083;BME280;37131;42.694;23.350;2023-04-21T04:29:24;95117.34;;;8.72;87.37
51083;BME280;37131;42.694;23.350;2023-04-21T04:31:49;95121.09;;;8.76;84.45
51083;BME280;37131;42.694;23.350;2023-04-21T04:34:15;95118.03;;;8.86;83.58
51083;BME280;37131;42.694;23.350;2023-04-21T04:36:40;95124.81;;;9.06;82.22
51083;BME280;37131;42.694;23.350;2023-04-21T04:39:06;95123.22;;;9.05;81.32
51083;BME280;37131;42.694;23.350;2023-04-21T04:41:32;95129.63;;;9.21;80.91
51083;BME280;37131;42.694;23.350;2023-04-21T04:43:58;95127.75;;;9.28;82.17
51083;BME280;37131;42.694;23.350;2023-04-21T04:46:24;95131.75;;;9.12;84.04
51083;BME280;37131;42.694;23.350;2023-04-21T04:48:49;95132.91;;;9.16;84.09
51083;BME280;37131;42.694;23.350;2023-04-21T04:51:15;95135.66;;;9.21;84.57
51083;BME280;37131;42.694;23.350;2023-04-21T04:53:40;95133.84;;;9.22;85.35
51083;BME280;37131;42.694;23.350;2023-04-21T04:56:06;95134.78;;;9.09;86.28
51083;BME280;37131;42.694;23.350;2023-04-21T04:58:31;95141.19;;;9.06;87.29
51083;BME280;37131;42.694;23.350;2023-04-21T05:00:56;95133.19;;;9.08;86.14
51083;BME280;37131;42.694;23.350;2023-04-21T05:03:22;95135.50;;;8.79;85.83
51083;BME280;37131;42.694;23.350;2023-04-21T05:05:47;95136.66;;;8.83;85.30
51083;BME280;37131;42.694;23.350;2023-04-21T05:08:12;95138.31;;;8.96;85.13
51083;BME280;37131;42.694;23.350;2023-04-21T05:10:37;95136.88;;;9.00;85.64
51083;BME280;37131;42.694;23.350;2023-04-21T05:13:04;95134.06;;;9.02;83.82
51083;BME280;37131;42.694;23.350;2023-04-21T05:15:30;95139.03;;;9.03;83.93
51083;BME280;37131;42.694;23.350;2023-04-21T05:17:55;95149.09;;;9.00;84.39
51083;BME280;37131;42.694;23.350;2023-04-21T05:20:21;95142.31;;;9.17;83.35
51083;BME280;37131;42.694;23.350;2023-04-21T05:22:46;95143.97;;;9.11;83.86
51083;BME280;37131;42.694;23.350;2023-04-21T05:25:12;95139.16;;;9.27;84.11
51083;BME280;37131;42.694;23.350;2023-04-21T05:27:39;95145.13;;;9.16;83.94
51083;BME280;37131;42.694;23.350;2023-04-21T05:30:05;95142.00;;;9.25;83.86
51083;BME280;37131;42.694;23.350;2023-04-21T05:32:30;95139.22;;;9.39;83.84
51083;BME280;37131;42.694;23.350;2023-04-21T05:34:55;95141.88;;;9.51;82.75
51083;BME280;37131;42.694;23.350;2023-04-21T05:37:21;95136.31;;;9.65;80.41
51083;BME280;37131;42.694;23.350;2023-04-21T05:39:46;95136.59;;;9.76;80.39
51083;BME280;37131;42.694;23.350;2023-04-21T05:42:11;95137.66;;;9.98;80.69
51083;BME280;37131;42.694;23.350;2023-04-21T05:44:37;95130.88;;;10.09;78.59
51083;BME280;37131;42.694;23.350;2023-04-21T05:47:05;95133.66;;;10.26;78.24
51083;BME280;37131;42.694;23.350;2023-04-21T05:49:31;95133.94;;;10.37;76.40
51083;BME280;37131;42.694;23.350;2023-04-21T05:51:57;95140.38;;;10.46;74.77
51083;BME280;37131;42.694;23.350;2023-04-21T05:54:22;95132.25;;;10.66;74.12
51083;BME280;37131;42.694;23.350;2023-04-21T05:56:47;95128.28;;;10.63;73.15
51083;BME280;37131;42.694;23.350;2023-04-21T05:59:13;95086.34;;;10.53;72.72
51083;BME280;37131;42.694;23.350;2023-04-21T06:01:38;95129.19;;;10.81;71.42
51083;BME280;37131;42.694;23.350;2023-04-21T06:04:03;95132.91;;;10.85;72.33
51083;BME280;37131;42.694;23.350;2023-04-21T06:06:28;95120.75;;;11.02;72.00
51083;BME280;37131;42.694;23.350;2023-04-21T06:08:54;95122.41;;;11.20;70.80
51083;BME280;37131;42.694;23.350;2023-04-21T06:11:19;95124.34;;;11.25;70.25
51083;BME280;37131;42.694;23.350;2023-04-21T06:13:45;95113.25;;;11.18;70.17
51083;BME280;37131;42.694;23.350;2023-04-21T06:16:10;95116.06;;;11.28;70.37
51083;BME280;37131;42.694;23.350;2023-04-21T06:18:35;95119.34;;;11.23;72.62
51083;BME280;37131;42.694;23.350;2023-04-21T06:21:01;95116.81;;;11.40;71.28
51083;BME280;37131;42.694;23.350;2023-04-21T06:23:26;95122.38;;;11.44;70.14
51083;BME280;37131;42.694;23.350;2023-04-21T06:25:58;95120.91;;;11.65;71.13
51083;BME280;37131;42.694;23.350;2023-04-21T06:28:24;95114.75;;;11.71;69.92
51083;BME280;37131;42.694;23.350;2023-04-21T06:30:49;95116.44;;;11.77;69.13
51083;BME280;37131;42.694;23.350;2023-04-21T06:33:15;95126.00;;;11.72;69.55
51083;BME280;37131;42.694;23.350;2023-04-21T06:35:40;95121.22;;;11.69;69.73
51083;BME280;37131;42.694;23.350;2023-04-21T06:38:07;95114.34;;;11.63;69.52
51083;BME280;37131;42.694;23.350;2023-04-21T06:40:32;95118.97;;;11.89;70.18
51083;BME280;37131;42.694;23.350;2023-04-21T06:42:57;95117.84;;;11.97;69.60
51083;BME280;37131;42.694;23.350;2023-04-21T06:45:23;95114.94;;;12.27;68.02
51083;BME280;37131;42.694;23.350;2023-04-21T06:47:48;95108.25;;;12.03;68.18
51083;BME280;37131;42.694;23.350;2023-04-21T06:50:13;95114.19;;;11.98;68.73
51083;BME280;37131;42.694;23.350;2023-04-21T06:52:39;95116.75;;;11.93;68.83
51083;BME280;37131;42.694;23.350;2023-04-21T06:55:04;95116.28;;;11.96;69.42
51083;BME280;37131;42.694;23.350;2023-04-21T06:57:30;95109.25;;;11.85;69.79
51083;BME280;37131;42.694;23.350;2023-04-21T06:59:55;95099.31;;;11.99;69.78
51083;BME280;37131;42.694;23.350;2023-04-21T07:02:20;95096.25;;;12.19;69.34
51083;BME280;37131;42.694;23.350;2023-04-21T07:04:45;95096.88;;;12.26;69.20
51083;BME280;37131;42.694;23.350;2023-04-21T07:07:11;95095.94;;;12.49;68.47
51083;BME280;37131;42.694;23.350;2023-04-21T07:09:38;95093.13;;;12.56;67.91
51083;BME280;37131;42.694;23.350;2023-04-21T07:12:03;95090.38;;;12.62;67.56
51083;BME280;37131;42.694;23.350;2023-04-21T07:14:28;95100.25;;;12.77;67.96
51083;BME280;37131;42.694;23.350;2023-04-21T07:16:54;95099.03;;;12.85;66.63
51083;BME280;37131;42.694;23.350;2023-04-21T07:19:21;95091.16;;;13.02;65.86
51083;BME280;37131;42.694;23.350;2023-04-21T07:21:46;95095.47;;;13.13;65.04
51083;BME280;37131;42.694;23.350;2023-04-21T07:24:11;95093.97;;;13.40;64.25
51083;BME280;37131;42.694;23.350;2023-04-21T07:26:37;95099.94;;;13.35;62.75
51083;BME280;37131;42.694;23.350;2023-04-21T07:29:02;95093.28;;;13.27;63.67
51083;BME280;37131;42.694;23.350;2023-04-21T07:31:27;95089.84;;;13.27;62.98
51083;BME280;37131;42.694;23.350;2023-04-21T07:33:52;95086.69;;;13.25;63.20
51083;BME280;37131;42.694;23.350;2023-04-21T07:36:18;95101.31;;;13.21;63.47
51083;BME280;37131;42.694;23.350;2023-04-21T07:38:43;95087.88;;;13.34;63.78
51083;BME280;37131;42.694;23.350;2023-04-21T07:41:09;95094.72;;;13.18;64.32
51083;BME280;37131;42.694;23.350;2023-04-21T07:43:35;95093.97;;;13.23;63.34
51083;BME280;37131;42.694;23.350;2023-04-21T07:46:00;95093.66;;;13.36;63.69
51083;BME280;37131;42.694;23.350;2023-04-21T07:48:25;95092.09;;;13.35;63.14
51083;BME280;37131;42.694;23.350;2023-04-21T07:50:51;95093.97;;;13.40;61.59
51083;BME280;37131;42.694;23.350;2023-04-21T07:53:17;95092.09;;;13.62;61.50
51083;BME280;37131;42.694;23.350;2023-04-21T07:55:42;95098.88;;;13.85;59.75
51083;BME280;37131;42.694;23.350;2023-04-21T07:58:07;95094.72;;;13.90;58.73
51083;BME280;37131;42.694;23.350;2023-04-21T08:00:34;95101.88;;;13.99;58.49
51083;BME280;37131;42.694;23.350;2023-04-21T08:02:59;95094.25;;;13.98;58.73
51083;BME280;37131;42.694;23.350;2023-04-21T08:05:25;95099.31;;;14.04;59.39
51083;BME280;37131;42.694;23.350;2023-04-21T08:07:50;95093.38;;;14.14;59.04
51083;BME280;37131;42.694;23.350;2023-04-21T08:10:16;95094.22;;;14.57;56.97
51083;BME280;37131;42.694;23.350;2023-04-21T08:12:41;95095.88;;;14.69;56.81
51083;BME280;37131;42.694;23.350;2023-04-21T08:15:06;95091.28;;;14.91;56.29
51083;BME280;37131;42.694;23.350;2023-04-21T08:17:32;95103.00;;;14.79;55.22
51083;BME280;37131;42.694;23.350;2023-04-21T08:19:58;95089.75;;;15.01;55.37
51083;BME280;37131;42.694;23.350;2023-04-21T08:22:23;95091.16;;;15.29;55.43
51083;BME280;37131;42.694;23.350;2023-04-21T08:24:48;95095.66;;;15.29;53.57
51083;BME280;37131;42.694;23.350;2023-04-21T08:27:13;95084.53;;;15.11;54.34
51083;BME280;37131;42.694;23.350;2023-04-21T08:29:38;95096.16;;;15.25;53.93
51083;BME280;37131;42.694;23.350;2023-04-21T08:32:04;95058.78;;;15.03;52.93
51083;BME280;37131;42.694;23.350;2023-04-21T08:34:29;95088.03;;;15.27;52.97
51083;BME280;37131;42.694;23.350;2023-04-21T08:36:55;95090.00;;;14.94;53.75
51083;BME280;37131;42.694;23.350;2023-04-21T08:39:20;95089.47;;;14.97;53.67
51083;BME280;37131;42.694;23.350;2023-04-21T08:41:45;95077.69;;;15.05;53.20
51083;BME280;37131;42.694;23.350;2023-04-21T08:44:11;95077.78;;;15.31;53.77
51083;BME280;37131;42.694;23.350;2023-04-21T08:46:36;95084.63;;;15.32;52.53
51083;BME280;37131;42.694;23.350;2023-04-21T08:49:02;95076.78;;;15.47;53.19
51083;BME280;37131;42.694;23.350;2023-04-21T08:51:28;95070.53;;;15.64;53.83
51083;BME280;37131;42.694;23.350;2023-04-21T08:53:54;95080.47;;;15.51;51.68
51083;BME280;37131;42.694;23.350;2023-04-21T08:56:20;95080.41;;;15.31;52.16
51083;BME280;37131;42.694;23.350;2023-04-21T08:58:45;95078.81;;;15.24;53.00
51083;BME280;37131;42.694;23.350;2023-04-21T09:01:10;95072.88;;;14.86;53.56
51083;BME280;37131;42.694;23.350;2023-04-21T09:03:36;95057.53;;;15.26;52.57
51083;BME280;37131;42.694;23.350;2023-04-21T09:06:05;95061.28;;;15.51;54.49
51083;BME280;37131;42.694;23.350;2023-04-21T09:08:30;95063.41;;;15.69;51.33
51083;BME280;37131;42.694;23.350;2023-04-21T09:10:56;95074.81;;;15.90;50.20
51083;BME280;37131;42.694;23.350;2023-04-21T09:13:28;95054.28;;;15.82;50.05
51083;BME280;37131;42.694;23.350;2023-04-21T09:15:54;95047.44;;;16.02;50.76
51083;BME280;37131;42.694;23.350;2023-04-21T09:18:20;95072.16;;;15.85;50.34
51083;BME280;37131;42.694;23.350;2023-04-21T09:20:47;95054.13;;;15.25;51.10
51083;BME280;37131;42.694;23.350;2023-04-21T09:23:12;95054.16;;;15.41;50.32
51083;BME280;37131;42.694;23.350;2023-04-21T09:25:38;95052.03;;;15.22;50.85
51083;BME280;37131;42.694;23.350;2023-04-21T09:28:11;95037.59;;;15.30;50.99
51083;BME280;37131;42.694;23.350;2023-04-21T09:30:36;95045.06;;;14.90;51.15
51083;BME280;37131;42.694;23.350;2023-04-21T09:33:02;95048.81;;;15.10;50.08
51083;BME280;37131;42.694;23.350;2023-04-21T09:35:31;95040.75;;;15.32;50.03
51083;BME280;37131;42.694;23.350;2023-04-21T09:37:57;95041.63;;;15.64;47.81
51083;BME280;37131;42.694;23.350;2023-04-21T09:40:24;95033.00;;;16.14;47.98
51083;BME280;37131;42.694;23.350;2023-04-21T09:42:50;95027.72;;;16.30;45.97
51083;BME280;37131;42.694;23.350;2023-04-21T09:45:15;95027.47;;;16.31;45.91
51083;BME280;37131;42.694;23.350;2023-04-21T09:47:41;95021.16;;;16.02;46.63
51083;BME280;37131;42.694;23.350;2023-04-21T09:50:08;95025.88;;;16.20;47.51
51083;BME280;37131;42.694;23.350;2023-04-21T09:52:33;95017.22;;;16.20;46.67
51083;BME280;37131;42.694;23.350;2023-04-21T09:55:01;95012.50;;;16.17;47.19
51083;BME280;37131;42.694;23.350;2023-04-21T09:57:31;95010.34;;;16.24;47.29
51083;BME280;37131;42.694;23.350;2023-04-21T10:00:00;95000.06;;;16.43;48.65
51083;BME280;37131;42.694;23.350;2023-04-21T10:02:26;95017.22;;;16.30;46.97
51083;BME280;37131;42.694;23.350;2023-04-21T10:04:54;94991.94;;;16.13;45.88
51083;BME280;37131;42.694;23.350;2023-04-21T10:07:19;95010.63;;;16.12;45.77
51083;BME280;37131;42.694;23.350;2023-04-21T10:09:46;95009.31;;;16.30;45.50
51083;BME280;37131;42.694;23.350;2023-04-21T10:12:13;95010.28;;;16.55;45.62
51083;BME280;37131;42.694;23.350;2023-04-21T10:14:39;95007.41;;;16.56;46.83
51083;BME280;37131;42.694;23.350;2023-04-21T10:17:05;94983.00;;;16.25;47.47
51083;BME280;37131;42.694;23.350;2023-04-21T10:19:30;95013.00;;;16.08;48.07
51083;BME280;37131;42.694;23.350;2023-04-21T10:22:03;95005.59;;;16.46;47.32
51083;BME280;37131;42.694;23.350;2023-04-21T10:24:30;95015.50;;;16.75;46.63
51083;BME280;37131;42.694;23.350;2023-04-21T10:26:58;95010.28;;;16.55;47.26
51083;BME280;37131;42.694;23.350;2023-04-21T10:29:32;95004.28;;;16.49;46.78
51083;BME280;37131;42.694;23.350;2023-04-21T10:31:58;95004.78;;;16.51;46.44
51083;BME280;37131;42.694;23.350;2023-04-21T10:36:50;94998.31;;;17.04;46.54
51083;BME280;37131;42.694;23.350;2023-04-21T10:41:50;94988.91;;;16.82;47.53
51083;BME280;37131;42.694;23.350;2023-04-21T10:44:16;94998.38;;;16.78;47.09
51083;BME280;37131;42.694;23.350;2023-04-21T10:46:44;94995.31;;;16.50;47.74
51083;BME280;37131;42.694;23.350;2023-04-21T10:49:11;94999.16;;;16.89;47.55
51083;BME280;37131;42.694;23.350;2023-04-21T10:54:20;95001.47;;;17.00;43.96
51083;BME280;37131;42.694;23.350;2023-04-21T10:56:46;94991.31;;;16.73;44.27
51083;BME280;37131;42.694;23.350;2023-04-21T10:59:12;94992.56;;;16.96;44.66
51083;BME280;37131;42.694;23.350;2023-04-21T11:01:39;94996.75;;;17.52;43.40
51083;BME280;37131;42.694;23.350;2023-04-21T11:04:04;94996.75;;;17.52;41.52
51083;BME280;37131;42.694;23.350;2023-04-21T11:06:30;94986.41;;;17.96;40.16
51083;BME280;37131;42.694;23.350;2023-04-21T11:08:56;94984.66;;;17.81;41.37
51083;BME280;37131;42.694;23.350;2023-04-21T11:11:22;94988.81;;;18.21;44.10
51083;BME280;37131;42.694;23.350;2023-04-21T11:13:48;94983.81;;;18.49;45.83
51083;BME280;37131;42.694;23.350;2023-04-21T11:16:13;94998.16;;;17.74;45.93
51083;BME280;37131;42.694;23.350;2023-04-21T11:18:39;94986.19;;;17.87;46.46
51083;BME280;37131;42.694;23.350;2023-04-21T11:21:06;94976.97;;;17.90;48.53
51083;BME280;37131;42.694;23.350;2023-04-21T11:23:31;94974.34;;;18.19;47.07
51083;BME280;37131;42.694;23.350;2023-04-21T11:25:58;94973.34;;;18.39;49.17
51083;BME280;37131;42.694;23.350;2023-04-21T11:28:23;94973.53;;;18.18;45.03
51083;BME280;37131;42.694;23.350;2023-04-21T11:30:48;94978.78;;;17.89;45.79
51083;BME280;37131;42.694;23.350;2023-04-21T11:33:14;94988.22;;;17.66;45.48
51083;BME280;37131;42.694;23.350;2023-04-21T11:35:39;94989.28;;;17.60;46.28
51083;BME280;37131;42.694;23.350;2023-04-21T11:38:05;94989.59;;;17.53;47.76
51083;BME280;37131;42.694;23.350;2023-04-21T11:40:42;95000.75;;;16.84;48.92
51083;BME280;37131;42.694;23.350;2023-04-21T11:43:08;94995.16;;;17.07;48.57
51083;BME280;37131;42.694;23.350;2023-04-21T11:45:33;94985.78;;;17.35;48.81
51083;BME280;37131;42.694;23.350;2023-04-21T11:48:12;94987.81;;;16.98;49.02
51083;BME280;37131;42.694;23.350;2023-04-21T11:50:37;94988.69;;;17.33;46.40
51083;BME280;37131;42.694;23.350;2023-04-21T11:53:03;94990.44;;;17.48;44.47
51083;BME280;37131;42.694;23.350;2023-04-21T11:55:28;94977.94;;;17.64;43.10
51083;BME280;37131;42.694;23.350;2023-04-21T11:57:53;94980.66;;;17.88;43.13
51083;BME280;37131;42.694;23.350;2023-04-21T12:00:21;94979.28;;;18.50;41.83
51083;BME280;37131;42.694;23.350;2023-04-21T12:02:55;94986.22;;;18.46;40.83
51083;BME280;37131;42.694;23.350;2023-04-21T12:05:21;94993.75;;;18.57;40.37
51083;BME280;37131;42.694;23.350;2023-04-21T12:07:47;94991.03;;;18.63;40.69
51083;BME280;37131;42.694;23.350;2023-04-21T12:10:13;94986.91;;;19.05;39.66
51083;BME280;37131;42.694;23.350;2023-04-21T12:12:39;94992.63;;;19.50;38.64
51083;BME280;37131;42.694;23.350;2023-04-21T12:15:06;94997.94;;;19.31;38.91
51083;BME280;37131;42.694;23.350;2023-04-21T12:17:37;94996.53;;;19.15;39.14
51083;BME280;37131;42.694;23.350;2023-04-21T12:20:04;94992.75;;;18.24;38.92
51083;BME280;37131;42.694;23.350;2023-04-21T12:22:30;94999.06;;;18.28;40.93
51083;BME280;37131;42.694;23.350;2023-04-21T12:24:55;95006.53;;;17.86;40.69
51083;BME280;37131;42.694;23.350;2023-04-21T12:27:20;95004.31;;;17.59;41.53
51083;BME280;37131;42.694;23.350;2023-04-21T12:29:46;94998.78;;;17.61;41.92
51083;BME280;37131;42.694;23.350;2023-04-21T12:32:11;94995.78;;;17.73;41.83
51083;BME280;37131;42.694;23.350;2023-04-21T12:34:37;95000.50;;;17.36;42.63
51083;BME280;37131;42.694;23.350;2023-04-21T12:37:02;94996.66;;;17.23;42.99
51083;BME280;37131;42.694;23.350;2023-04-21T12:39:28;94990.41;;;17.04;42.41
51083;BME280;37131;42.694;23.350;2023-04-21T12:41:54;94995.63;;;17.14;43.47
51083;BME280;37131;42.694;23.350;2023-04-21T12:44:19;94960.97;;;16.96;42.65
51083;BME280;37131;42.694;23.350;2023-04-21T12:46:45;94984.25;;;18.03;42.17
51083;BME280;37131;42.694;23.350;2023-04-21T12:49:12;94976.38;;;17.98;41.63
51083;BME280;37131;42.694;23.350;2023-04-21T12:51:39;94993.66;;;18.92;40.41
51083;BME280;37131;42.694;23.350;2023-04-21T12:54:04;94979.03;;;18.75;40.16